sensor_id;sensor_type;location;lat;lon;timestamp;P1;durP1;ratioP1;P2;durP2;ratioP2
37267;SDS011;23154;52.542;13.362;2022-09-14T00:01:28;13.00;;;2.83;;
37267;SDS011;23154;52.542;13.362;2022-09-14T00:03:57;13.23;;;2.50;;
37267;SDS011;23154;52.542;13.362;2022-09-14T00:06:25;16.02;;;3.30;;
37267;SDS011;23154;52.542;13.362;2022-09-14T00:08:52;20.75;;;2.53;;
37267;SDS011;23154;52.542;13.362;2022-09-14T00:11:19;13.35;;;2.83;;
37267;SDS011;23154;52.542;13.362;2022-09-14T00:13:47;13.30;;;2.30;;
37267;SDS011;23154;52.542;13.362;2022-09-14T00:16:14;13.38;;;2.65;;
37267;SDS011;23154;52.542;13.362;2022-09-14T00:18:52;14.65;;;2.50;;
37267;SDS011;23154;52.542;13.362;2022-09-14T00:21:20;14.50;;;2.40;;
37267;SDS011;23154;52.542;13.362;2022-09-14T00:23:46;17.83;;;2.90;;
37267;SDS011;23154;52.542;13.362;2022-09-14T00:26:13;17.27;;;2.50;;
37267;SDS011;23154;52.542;13.362;2022-09-14T00:28:45;17.10;;;3.10;;
37267;SDS011;23154;52.542;13.362;2022-09-14T00:31:13;16.33;;;2.38;;
37267;SDS011;23154;52.542;13.362;2022-09-14T00:33:43;17.67;;;2.78;;
37267;SDS011;23154;52.542;13.362;2022-09-14T00:36:12;14.55;;;2.67;;
37267;SDS011;23154;52.542;13.362;2022-09-14T00:38:40;15.60;;;2.83;;
37267;SDS011;23154;52.542;13.362;2022-09-14T00:41:07;17.67;;;2.53;;
37267;SDS011;23154;52.542;13.362;2022-09-14T00:46:20;13.10;;;2.00;;
37267;SDS011;23154;52.542;13.362;2022-09-14T00:48:46;13.93;;;2.58;;
37267;SDS011;23154;52.542;13.362;2022-09-14T00:51:12;15.48;;;2.80;;
37267;SDS011;23154;52.542;13.362;2022-09-14T00:53:39;16.45;;;2.85;;
37267;SDS011;23154;52.542;13.362;2022-09-14T00:56:05;14.25;;;2.50;;
37267;SDS011;23154;52.542;13.362;2022-09-14T00:58:31;10.98;;;2.58;;
37267;SDS011;23154;52.542;13.362;2022-09-14T01:00:56;14.18;;;2.72;;
37267;SDS011;23154;52.542;13.362;2022-09-14T01:03:22;18.08;;;2.72;;
37267;SDS011;23154;52.542;13.362;2022-09-14T01:06:04;23.10;;;3.53;;
37267;SDS011;23154;52.542;13.362;2022-09-14T01:13:41;17.65;;;2.70;;
37267;SDS011;23154;52.542;13.362;2022-09-14T01:16:26;19.25;;;2.60;;
37267;SDS011;23154;52.542;13.362;2022-09-14T01:19:04;22.52;;;2.90;;
37267;SDS011;23154;52.542;13.362;2022-09-14T01:21:38;12.90;;;2.35;;
37267;SDS011;23154;52.542;13.362;2022-09-14T01:24:14;18.15;;;2.92;;
37267;SDS011;23154;52.542;13.362;2022-09-14T01:29:34;15.90;;;2.83;;
37267;SDS011;23154;52.542;13.362;2022-09-14T01:32:11;19.25;;;3.05;;
37267;SDS011;23154;52.542;13.362;2022-09-14T01:37:17;14.02;;;2.78;;
37267;SDS011;23154;52.542;13.362;2022-09-14T01:39:53;20.30;;;3.13;;
37267;SDS011;23154;52.542;13.362;2022-09-14T01:42:24;22.48;;;3.30;;
37267;SDS011;23154;52.542;13.362;2022-09-14T01:44:53;17.73;;;3.30;;
37267;SDS011;23154;52.542;13.362;2022-09-14T01:47:30;16.88;;;2.60;;
37267;SDS011;23154;52.542;13.362;2022-09-14T01:50:10;13.73;;;2.33;;
37267;SDS011;23154;52.542;13.362;2022-09-14T01:52:43;16.33;;;2.85;;
37267;SDS011;23154;52.542;13.362;2022-09-14T01:55:19;16.83;;;3.17;;
37267;SDS011;23154;52.542;13.362;2022-09-14T01:57:51;14.25;;;2.65;;
37267;SDS011;23154;52.542;13.362;2022-09-14T02:00:21;25.63;;;3.17;;
37267;SDS011;23154;52.542;13.362;2022-09-14T02:02:52;19.23;;;3.00;;
37267;SDS011;23154;52.542;13.362;2022-09-14T02:08:35;16.77;;;3.03;;
37267;SDS011;23154;52.542;13.362;2022-09-14T02:11:01;14.27;;;2.50;;
37267;SDS011;23154;52.542;13.362;2022-09-14T02:13:26;19.88;;;3.10;;
37267;SDS011;23154;52.542;13.362;2022-09-14T02:15:53;15.13;;;2.53;;
37267;SDS011;23154;52.542;13.362;2022-09-14T02:18:18;16.80;;;2.90;;
37267;SDS011;23154;52.542;13.362;2022-09-14T02:20:49;15.25;;;2.72;;
37267;SDS011;23154;52.542;13.362;2022-09-14T02:23:28;14.98;;;2.85;;
37267;SDS011;23154;52.542;13.362;2022-09-14T02:25:53;18.38;;;2.80;;
37267;SDS011;23154;52.542;13.362;2022-09-14T02:28:20;17.90;;;2.80;;
37267;SDS011;23154;52.542;13.362;2022-09-14T02:33:47;18.55;;;2.63;;
37267;SDS011;23154;52.542;13.362;2022-09-14T02:36:16;16.10;;;2.72;;
37267;SDS011;23154;52.542;13.362;2022-09-14T02:39:00;17.42;;;2.90;;
37267;SDS011;23154;52.542;13.362;2022-09-14T02:41:37;15.25;;;3.10;;
37267;SDS011;23154;52.542;13.362;2022-09-14T02:47:11;18.17;;;2.88;;
37267;SDS011;23154;52.542;13.362;2022-09-14T02:49:53;20.05;;;2.92;;
37267;SDS011;23154;52.542;13.362;2022-09-14T02:52:39;15.60;;;2.70;;
37267;SDS011;23154;52.542;13.362;2022-09-14T02:55:09;13.60;;;2.60;;
37267;SDS011;23154;52.542;13.362;2022-09-14T02:57:57;17.75;;;3.47;;
37267;SDS011;23154;52.542;13.362;2022-09-14T03:00:27;16.40;;;2.88;;
37267;SDS011;23154;52.542;13.362;2022-09-14T03:02:53;15.38;;;3.30;;
37267;SDS011;23154;52.542;13.362;2022-09-14T03:05:19;19.48;;;3.00;;
37267;SDS011;23154;52.542;13.362;2022-09-14T03:07:45;18.38;;;3.28;;
37267;SDS011;23154;52.542;13.362;2022-09-14T03:10:10;17.75;;;3.08;;
37267;SDS011;23154;52.542;13.362;2022-09-14T03:12:36;14.23;;;2.83;;
37267;SDS011;23154;52.542;13.362;2022-09-14T03:15:03;18.70;;;3.22;;
37267;SDS011;23154;52.542;13.362;2022-09-14T03:17:29;19.23;;;3.30;;
37267;SDS011;23154;52.542;13.362;2022-09-14T03:19:55;15.30;;;3.25;;
37267;SDS011;23154;52.542;13.362;2022-09-14T03:22:20;15.07;;;2.83;;
37267;SDS011;23154;52.542;13.362;2022-09-14T03:24:46;17.98;;;3.00;;
37267;SDS011;23154;52.542;13.362;2022-09-14T03:27:12;18.13;;;3.13;;
37267;SDS011;23154;52.542;13.362;2022-09-14T03:29:37;19.55;;;3.20;;
37267;SDS011;23154;52.542;13.362;2022-09-14T03:32:03;18.25;;;3.22;;
37267;SDS011;23154;52.542;13.362;2022-09-14T03:34:28;19.17;;;3.63;;
37267;SDS011;23154;52.542;13.362;2022-09-14T03:36:54;16.85;;;3.45;;
37267;SDS011;23154;52.542;13.362;2022-09-14T03:39:19;23.88;;;3.97;;
37267;SDS011;23154;52.542;13.362;2022-09-14T03:41:45;12.55;;;3.10;;
37267;SDS011;23154;52.542;13.362;2022-09-14T03:44:11;18.23;;;3.38;;
37267;SDS011;23154;52.542;13.362;2022-09-14T03:46:36;15.43;;;3.28;;
37267;SDS011;23154;52.542;13.362;2022-09-14T03:49:02;17.05;;;3.10;;
37267;SDS011;23154;52.542;13.362;2022-09-14T03:51:27;19.45;;;3.58;;
37267;SDS011;23154;52.542;13.362;2022-09-14T03:53:53;18.80;;;4.30;;
37267;SDS011;23154;52.542;13.362;2022-09-14T03:56:19;19.25;;;3.92;;
37267;SDS011;23154;52.542;13.362;2022-09-14T03:58:47;22.70;;;4.80;;
37267;SDS011;23154;52.542;13.362;2022-09-14T04:01:14;20.75;;;4.88;;
37267;SDS011;23154;52.542;13.362;2022-09-14T04:03:43;21.03;;;3.97;;
37267;SDS011;23154;52.542;13.362;2022-09-14T04:06:09;20.30;;;4.07;;
37267;SDS011;23154;52.542;13.362;2022-09-14T04:08:35;16.85;;;3.90;;
37267;SDS011;23154;52.542;13.362;2022-09-14T04:11:07;18.67;;;3.75;;
37267;SDS011;23154;52.542;13.362;2022-09-14T04:13:38;20.08;;;3.33;;
37267;SDS011;23154;52.542;13.362;2022-09-14T04:16:04;24.33;;;4.13;;
37267;SDS011;23154;52.542;13.362;2022-09-14T04:18:29;20.70;;;4.18;;
37267;SDS011;23154;52.542;13.362;2022-09-14T04:20:56;30.73;;;5.65;;
37267;SDS011;23154;52.542;13.362;2022-09-14T04:23:23;32.60;;;8.27;;
37267;SDS011;23154;52.542;13.362;2022-09-14T04:25:49;28.98;;;5.88;;
37267;SDS011;23154;52.542;13.362;2022-09-14T04:28:15;25.25;;;5.30;;
37267;SDS011;23154;52.542;13.362;2022-09-14T04:30:41;32.05;;;8.05;;
37267;SDS011;23154;52.542;13.362;2022-09-14T04:33:07;29.52;;;8.02;;
37267;SDS011;23154;52.542;13.362;2022-09-14T04:35:32;32.15;;;7.57;;
37267;SDS011;23154;52.542;13.362;2022-09-14T04:37:58;29.85;;;7.30;;
37267;SDS011;23154;52.542;13.362;2022-09-14T04:40:24;27.08;;;5.88;;
37267;SDS011;23154;52.542;13.362;2022-09-14T04:42:52;21.58;;;4.85;;
37267;SDS011;23154;52.542;13.362;2022-09-14T04:45:18;21.90;;;4.93;;
37267;SDS011;23154;52.542;13.362;2022-09-14T04:47:43;22.52;;;4.57;;
37267;SDS011;23154;52.542;13.362;2022-09-14T04:50:09;18.25;;;4.10;;
37267;SDS011;23154;52.542;13.362;2022-09-14T04:52:35;20.20;;;4.60;;
37267;SDS011;23154;52.542;13.362;2022-09-14T04:55:01;28.65;;;5.40;;
37267;SDS011;23154;52.542;13.362;2022-09-14T04:57:26;18.42;;;4.25;;
37267;SDS011;23154;52.542;13.362;2022-09-14T04:59:52;21.95;;;4.20;;
37267;SDS011;23154;52.542;13.362;2022-09-14T05:02:18;17.92;;;3.92;;
37267;SDS011;23154;52.542;13.362;2022-09-14T05:04:43;24.63;;;4.55;;
37267;SDS011;23154;52.542;13.362;2022-09-14T05:07:09;20.20;;;3.95;;
37267;SDS011;23154;52.542;13.362;2022-09-14T05:09:35;17.08;;;3.28;;
37267;SDS011;23154;52.542;13.362;2022-09-14T05:12:01;19.85;;;3.20;;
37267;SDS011;23154;52.542;13.362;2022-09-14T05:14:26;20.98;;;3.65;;
37267;SDS011;23154;52.542;13.362;2022-09-14T05:16:52;19.70;;;4.20;;
37267;SDS011;23154;52.542;13.362;2022-09-14T05:19:18;13.73;;;3.35;;
37267;SDS011;23154;52.542;13.362;2022-09-14T05:21:43;25.13;;;3.88;;
37267;SDS011;23154;52.542;13.362;2022-09-14T05:24:11;20.70;;;3.90;;
37267;SDS011;23154;52.542;13.362;2022-09-14T05:26:39;17.25;;;3.78;;
37267;SDS011;23154;52.542;13.362;2022-09-14T05:29:05;16.02;;;3.53;;
37267;SDS011;23154;52.542;13.362;2022-09-14T05:31:31;17.98;;;3.80;;
37267;SDS011;23154;52.542;13.362;2022-09-14T05:33:57;17.50;;;4.10;;
37267;SDS011;23154;52.542;13.362;2022-09-14T05:36:23;18.08;;;3.72;;
37267;SDS011;23154;52.542;13.362;2022-09-14T05:38:49;16.85;;;3.75;;
37267;SDS011;23154;52.542;13.362;2022-09-14T05:41:16;17.33;;;3.65;;
37267;SDS011;23154;52.542;13.362;2022-09-14T05:43:42;19.55;;;4.13;;
37267;SDS011;23154;52.542;13.362;2022-09-14T05:46:15;16.02;;;3.35;;
37267;SDS011;23154;52.542;13.362;2022-09-14T05:48:44;20.38;;;4.20;;
37267;SDS011;23154;52.542;13.362;2022-09-14T05:51:15;16.83;;;4.00;;
37267;SDS011;23154;52.542;13.362;2022-09-14T05:53:51;21.27;;;4.53;;
37267;SDS011;23154;52.542;13.362;2022-09-14T05:56:19;16.70;;;3.80;;
37267;SDS011;23154;52.542;13.362;2022-09-14T05:58:45;18.67;;;4.40;;
37267;SDS011;23154;52.542;13.362;2022-09-14T06:01:12;23.08;;;5.15;;
37267;SDS011;23154;52.542;13.362;2022-09-14T06:03:48;30.83;;;7.88;;
37267;SDS011;23154;52.542;13.362;2022-09-14T06:06:17;22.33;;;4.63;;
37267;SDS011;23154;52.542;13.362;2022-09-14T06:08:44;25.58;;;5.35;;
37267;SDS011;23154;52.542;13.362;2022-09-14T06:13:38;22.65;;;4.30;;
37267;SDS011;23154;52.542;13.362;2022-09-14T06:16:05;18.30;;;4.68;;
37267;SDS011;23154;52.542;13.362;2022-09-14T06:18:36;32.00;;;4.70;;
37267;SDS011;23154;52.542;13.362;2022-09-14T06:21:03;22.70;;;4.65;;
37267;SDS011;23154;52.542;13.362;2022-09-14T06:23:31;15.25;;;3.70;;
37267;SDS011;23154;52.542;13.362;2022-09-14T06:25:57;20.17;;;4.07;;
37267;SDS011;23154;52.542;13.362;2022-09-14T06:28:27;15.80;;;4.40;;
37267;SDS011;23154;52.542;13.362;2022-09-14T06:30:54;17.88;;;4.13;;
37267;SDS011;23154;52.542;13.362;2022-09-14T06:33:20;20.02;;;4.45;;
37267;SDS011;23154;52.542;13.362;2022-09-14T06:35:56;17.92;;;3.63;;
37267;SDS011;23154;52.542;13.362;2022-09-14T06:38:23;21.98;;;4.18;;
37267;SDS011;23154;52.542;13.362;2022-09-14T06:40:49;18.60;;;4.15;;
37267;SDS011;23154;52.542;13.362;2022-09-14T06:43:16;16.80;;;3.83;;
37267;SDS011;23154;52.542;13.362;2022-09-14T06:45:41;17.20;;;4.22;;
37267;SDS011;23154;52.542;13.362;2022-09-14T06:48:07;18.95;;;3.80;;
37267;SDS011;23154;52.542;13.362;2022-09-14T06:50:32;16.60;;;4.25;;
37267;SDS011;23154;52.542;13.362;2022-09-14T06:52:58;18.77;;;4.13;;
37267;SDS011;23154;52.542;13.362;2022-09-14T06:55:24;20.67;;;3.72;;
37267;SDS011;23154;52.542;13.362;2022-09-14T06:57:51;20.70;;;4.32;;
37267;SDS011;23154;52.542;13.362;2022-09-14T07:00:16;16.25;;;3.60;;
37267;SDS011;23154;52.542;13.362;2022-09-14T07:02:43;16.77;;;3.60;;
37267;SDS011;23154;52.542;13.362;2022-09-14T07:05:08;20.92;;;3.15;;
37267;SDS011;23154;52.542;13.362;2022-09-14T07:07:35;19.38;;;3.58;;
37267;SDS011;23154;52.542;13.362;2022-09-14T07:10:01;16.02;;;2.97;;
37267;SDS011;23154;52.542;13.362;2022-09-14T07:12:26;15.70;;;3.05;;
37267;SDS011;23154;52.542;13.362;2022-09-14T07:14:52;16.90;;;3.33;;
37267;SDS011;23154;52.542;13.362;2022-09-14T07:17:17;17.15;;;3.40;;
37267;SDS011;23154;52.542;13.362;2022-09-14T07:19:44;21.13;;;2.80;;
37267;SDS011;23154;52.542;13.362;2022-09-14T07:22:10;18.38;;;2.97;;
37267;SDS011;23154;52.542;13.362;2022-09-14T07:24:35;17.60;;;3.20;;
37267;SDS011;23154;52.542;13.362;2022-09-14T07:27:01;15.32;;;2.88;;
37267;SDS011;23154;52.542;13.362;2022-09-14T07:29:26;13.85;;;2.50;;
37267;SDS011;23154;52.542;13.362;2022-09-14T07:31:52;16.63;;;3.60;;
37267;SDS011;23154;52.542;13.362;2022-09-14T07:34:18;22.90;;;3.20;;
37267;SDS011;23154;52.542;13.362;2022-09-14T07:36:44;17.00;;;3.13;;
37267;SDS011;23154;52.542;13.362;2022-09-14T07:39:11;23.17;;;3.30;;
37267;SDS011;23154;52.542;13.362;2022-09-14T07:41:38;15.65;;;2.75;;
37267;SDS011;23154;52.542;13.362;2022-09-14T07:44:04;19.27;;;3.05;;
37267;SDS011;23154;52.542;13.362;2022-09-14T07:46:35;16.77;;;2.80;;
37267;SDS011;23154;52.542;13.362;2022-09-14T07:49:03;22.58;;;3.28;;
37267;SDS011;23154;52.542;13.362;2022-09-14T07:51:29;21.33;;;2.55;;
37267;SDS011;23154;52.542;13.362;2022-09-14T07:53:56;20.60;;;2.60;;
37267;SDS011;23154;52.542;13.362;2022-09-14T07:56:23;14.65;;;2.25;;
37267;SDS011;23154;52.542;13.362;2022-09-14T07:58:51;17.67;;;2.50;;
37267;SDS011;23154;52.542;13.362;2022-09-14T08:01:18;22.48;;;3.13;;
37267;SDS011;23154;52.542;13.362;2022-09-14T08:03:44;15.68;;;2.90;;
37267;SDS011;23154;52.542;13.362;2022-09-14T08:06:14;17.77;;;4.22;;
37267;SDS011;23154;52.542;13.362;2022-09-14T08:08:42;15.85;;;2.92;;
37267;SDS011;23154;52.542;13.362;2022-09-14T08:11:10;13.90;;;2.80;;
37267;SDS011;23154;52.542;13.362;2022-09-14T08:13:39;19.98;;;3.10;;
37267;SDS011;23154;52.542;13.362;2022-09-14T08:16:07;15.38;;;2.58;;
37267;SDS011;23154;52.542;13.362;2022-09-14T08:18:34;17.08;;;2.55;;
37267;SDS011;23154;52.542;13.362;2022-09-14T08:21:18;17.63;;;2.78;;
37267;SDS011;23154;52.542;13.362;2022-09-14T08:23:44;17.52;;;2.70;;
37267;SDS011;23154;52.542;13.362;2022-09-14T08:26:11;18.30;;;3.00;;
37267;SDS011;23154;52.542;13.362;2022-09-14T08:28:41;14.95;;;2.72;;
37267;SDS011;23154;52.542;13.362;2022-09-14T08:31:09;17.42;;;2.92;;
37267;SDS011;23154;52.542;13.362;2022-09-14T08:33:42;14.60;;;2.65;;
37267;SDS011;23154;52.542;13.362;2022-09-14T08:36:10;17.02;;;3.00;;
37267;SDS011;23154;52.542;13.362;2022-09-14T08:38:37;17.10;;;2.40;;
37267;SDS011;23154;52.542;13.362;2022-09-14T08:41:36;18.20;;;3.17;;
37267;SDS011;23154;52.542;13.362;2022-09-14T08:43:58;16.08;;;2.58;;
37267;SDS011;23154;52.542;13.362;2022-09-14T08:46:49;19.65;;;3.08;;
37267;SDS011;23154;52.542;13.362;2022-09-14T08:51:54;17.52;;;3.20;;
37267;SDS011;23154;52.542;13.362;2022-09-14T08:54:21;20.45;;;3.25;;
37267;SDS011;23154;52.542;13.362;2022-09-14T08:56:48;18.67;;;2.90;;
37267;SDS011;23154;52.542;13.362;2022-09-14T08:59:46;22.30;;;4.18;;
37267;SDS011;23154;52.542;13.362;2022-09-14T09:02:32;15.57;;;2.67;;
37267;SDS011;23154;52.542;13.362;2022-09-14T09:05:19;17.13;;;2.45;;
37267;SDS011;23154;52.542;13.362;2022-09-14T09:08:11;14.30;;;2.65;;
37267;SDS011;23154;52.542;13.362;2022-09-14T09:13:26;20.75;;;3.45;;
37267;SDS011;23154;52.542;13.362;2022-09-14T09:15:59;12.55;;;2.50;;
37267;SDS011;23154;52.542;13.362;2022-09-14T09:21:35;18.33;;;2.67;;
37267;SDS011;23154;52.542;13.362;2022-09-14T09:24:27;15.85;;;2.15;;
37267;SDS011;23154;52.542;13.362;2022-09-14T09:26:58;17.80;;;2.70;;
37267;SDS011;23154;52.542;13.362;2022-09-14T09:29:24;17.55;;;2.90;;
37267;SDS011;23154;52.542;13.362;2022-09-14T09:31:51;18.90;;;2.78;;
37267;SDS011;23154;52.542;13.362;2022-09-14T09:34:26;17.52;;;2.80;;
37267;SDS011;23154;52.542;13.362;2022-09-14T09:36:53;14.73;;;2.65;;
37267;SDS011;23154;52.542;13.362;2022-09-14T09:39:20;13.48;;;2.40;;
37267;SDS011;23154;52.542;13.362;2022-09-14T09:44:26;9.95;;;2.28;;
37267;SDS011;23154;52.542;13.362;2022-09-14T09:46:52;16.33;;;2.50;;
37267;SDS011;23154;52.542;13.362;2022-09-14T09:49:23;13.55;;;2.47;;
37267;SDS011;23154;52.542;13.362;2022-09-14T09:52:32;13.60;;;2.75;;
37267;SDS011;23154;52.542;13.362;2022-09-14T09:54:51;19.52;;;2.88;;
37267;SDS011;23154;52.542;13.362;2022-09-14T10:02:35;13.57;;;2.03;;
37267;SDS011;23154;52.542;13.362;2022-09-14T10:05:02;12.65;;;2.45;;
37267;SDS011;23154;52.542;13.362;2022-09-14T10:07:51;15.65;;;2.83;;
37267;SDS011;23154;52.542;13.362;2022-09-14T10:10:40;11.55;;;2.58;;
37267;SDS011;23154;52.542;13.362;2022-09-14T10:13:22;10.77;;;2.40;;
37267;SDS011;23154;52.542;13.362;2022-09-14T10:15:52;17.50;;;2.45;;
37267;SDS011;23154;52.542;13.362;2022-09-14T10:18:28;16.35;;;2.50;;
37267;SDS011;23154;52.542;13.362;2022-09-14T10:23:26;14.57;;;2.53;;
37267;SDS011;23154;52.542;13.362;2022-09-14T10:28:42;14.63;;;2.88;;
37267;SDS011;23154;52.542;13.362;2022-09-14T10:33:36;19.30;;;2.35;;
37267;SDS011;23154;52.542;13.362;2022-09-14T10:38:48;14.63;;;2.50;;
37267;SDS011;23154;52.542;13.362;2022-09-14T10:44:36;12.63;;;2.20;;
37267;SDS011;23154;52.542;13.362;2022-09-14T10:50:05;11.85;;;2.25;;
37267;SDS011;23154;52.542;13.362;2022-09-14T10:52:59;12.65;;;2.22;;
37267;SDS011;23154;52.542;13.362;2022-09-14T10:58:55;17.80;;;2.45;;
37267;SDS011;23154;52.542;13.362;2022-09-14T11:04:47;15.40;;;2.72;;
37267;SDS011;23154;52.542;13.362;2022-09-14T11:07:41;16.63;;;2.53;;
37267;SDS011;23154;52.542;13.362;2022-09-14T11:13:13;14.02;;;2.78;;
37267;SDS011;23154;52.542;13.362;2022-09-14T11:18:44;10.45;;;2.42;;
37267;SDS011;23154;52.542;13.362;2022-09-14T11:21:21;15.80;;;2.83;;
37267;SDS011;23154;52.542;13.362;2022-09-14T11:23:58;18.25;;;2.90;;
37267;SDS011;23154;52.542;13.362;2022-09-14T11:26:35;14.82;;;2.40;;
37267;SDS011;23154;52.542;13.362;2022-09-14T11:31:51;15.25;;;2.28;;
37267;SDS011;23154;52.542;13.362;2022-09-14T11:34:32;18.75;;;2.60;;
37267;SDS011;23154;52.542;13.362;2022-09-14T11:37:08;11.90;;;2.20;;
37267;SDS011;23154;52.542;13.362;2022-09-14T11:39:41;11.02;;;1.95;;
37267;SDS011;23154;52.542;13.362;2022-09-14T11:42:13;16.58;;;2.17;;
37267;SDS011;23154;52.542;13.362;2022-09-14T11:44:42;12.20;;;2.03;;
37267;SDS011;23154;52.542;13.362;2022-09-14T11:47:15;16.92;;;2.45;;
37267;SDS011;23154;52.542;13.362;2022-09-14T11:52:27;15.85;;;2.28;;
37267;SDS011;23154;52.542;13.362;2022-09-14T11:54:55;12.93;;;2.40;;
37267;SDS011;23154;52.542;13.362;2022-09-14T11:59:59;17.92;;;2.80;;
37267;SDS011;23154;52.542;13.362;2022-09-14T12:12:38;15.00;;;2.85;;
37267;SDS011;23154;52.542;13.362;2022-09-14T12:17:47;11.20;;;2.25;;
37267;SDS011;23154;52.542;13.362;2022-09-14T12:36:04;15.05;;;2.50;;
37267;SDS011;23154;52.542;13.362;2022-09-14T12:38:38;15.38;;;2.50;;
37267;SDS011;23154;52.542;13.362;2022-09-14T13:01:49;13.93;;;2.75;;
37267;SDS011;23154;52.542;13.362;2022-09-14T13:04:26;21.58;;;3.13;;
37267;SDS011;23154;52.542;13.362;2022-09-14T13:06:54;16.08;;;2.80;;
37267;SDS011;23154;52.542;13.362;2022-09-14T13:09:22;18.77;;;2.75;;
37267;SDS011;23154;52.542;13.362;2022-09-14T13:12:10;15.93;;;2.13;;
37267;SDS011;23154;52.542;13.362;2022-09-14T13:14:43;13.15;;;2.40;;
37267;SDS011;23154;52.542;13.362;2022-09-14T13:17:16;16.83;;;2.83;;
37267;SDS011;23154;52.542;13.362;2022-09-14T13:19:42;15.13;;;2.35;;
37267;SDS011;23154;52.542;13.362;2022-09-14T13:22:26;14.57;;;2.15;;
37267;SDS011;23154;52.542;13.362;2022-09-14T13:24:53;13.05;;;2.28;;
37267;SDS011;23154;52.542;13.362;2022-09-14T13:30:00;13.50;;;2.47;;
37267;SDS011;23154;52.542;13.362;2022-09-14T13:32:40;12.88;;;2.40;;
37267;SDS011;23154;52.542;13.362;2022-09-14T13:35:14;16.90;;;2.45;;
37267;SDS011;23154;52.542;13.362;2022-09-14T13:37:41;15.70;;;2.53;;
37267;SDS011;23154;52.542;13.362;2022-09-14T13:40:07;18.20;;;2.88;;
37267;SDS011;23154;52.542;13.362;2022-09-14T13:42:33;13.95;;;2.50;;
37267;SDS011;23154;52.542;13.362;2022-09-14T13:44:59;13.98;;;2.63;;
37267;SDS011;23154;52.542;13.362;2022-09-14T13:47:25;16.52;;;2.30;;
37267;SDS011;23154;52.542;13.362;2022-09-14T13:49:51;13.05;;;2.63;;
37267;SDS011;23154;52.542;13.362;2022-09-14T13:54:51;16.35;;;2.40;;
37267;SDS011;23154;52.542;13.362;2022-09-14T13:57:21;14.27;;;2.58;;
37267;SDS011;23154;52.542;13.362;2022-09-14T14:02:50;10.77;;;2.22;;
37267;SDS011;23154;52.542;13.362;2022-09-14T14:05:28;11.02;;;2.20;;
37267;SDS011;23154;52.542;13.362;2022-09-14T14:07:55;12.10;;;2.05;;
37267;SDS011;23154;52.542;13.362;2022-09-14T14:10:38;12.70;;;2.47;;
37267;SDS011;23154;52.542;13.362;2022-09-14T14:13:10;12.63;;;2.30;;
37267;SDS011;23154;52.542;13.362;2022-09-14T14:18:28;13.90;;;2.42;;
37267;SDS011;23154;52.542;13.362;2022-09-14T14:23:29;14.85;;;2.92;;
37267;SDS011;23154;52.542;13.362;2022-09-14T14:25:55;10.40;;;2.05;;
37267;SDS011;23154;52.542;13.362;2022-09-14T14:28:50;16.35;;;2.85;;
37267;SDS011;23154;52.542;13.362;2022-09-14T14:31:18;7.43;;;1.65;;
37267;SDS011;23154;52.542;13.362;2022-09-14T14:33:46;12.80;;;2.50;;
37267;SDS011;23154;52.542;13.362;2022-09-14T14:36:13;13.10;;;2.53;;
37267;SDS011;23154;52.542;13.362;2022-09-14T14:38:40;11.40;;;2.42;;
37267;SDS011;23154;52.542;13.362;2022-09-14T14:41:08;14.70;;;2.45;;
37267;SDS011;23154;52.542;13.362;2022-09-14T14:43:38;13.25;;;2.10;;
37267;SDS011;23154;52.542;13.362;2022-09-14T14:46:05;12.55;;;2.50;;
37267;SDS011;23154;52.542;13.362;2022-09-14T14:48:31;13.85;;;2.50;;
37267;SDS011;23154;52.542;13.362;2022-09-14T14:50:57;16.02;;;2.30;;
37267;SDS011;23154;52.542;13.362;2022-09-14T14:53:23;10.10;;;2.08;;
37267;SDS011;23154;52.542;13.362;2022-09-14T14:55:49;11.38;;;2.40;;
37267;SDS011;23154;52.542;13.362;2022-09-14T14:58:16;13.55;;;2.58;;
37267;SDS011;23154;52.542;13.362;2022-09-14T15:00:43;12.13;;;2.25;;
37267;SDS011;23154;52.542;13.362;2022-09-14T15:03:09;9.63;;;2.05;;
37267;SDS011;23154;52.542;13.362;2022-09-14T15:05:38;12.70;;;2.50;;
37267;SDS011;23154;52.542;13.362;2022-09-14T15:08:12;12.73;;;2.22;;
37267;SDS011;23154;52.542;13.362;2022-09-14T15:10:40;13.90;;;2.33;;
37267;SDS011;23154;52.542;13.362;2022-09-14T15:13:06;12.35;;;2.42;;
37267;SDS011;23154;52.542;13.362;2022-09-14T15:15:32;12.75;;;2.30;;
37267;SDS011;23154;52.542;13.362;2022-09-14T15:17:58;11.93;;;2.30;;
37267;SDS011;23154;52.542;13.362;2022-09-14T15:20:24;13.98;;;2.20;;
37267;SDS011;23154;52.542;13.362;2022-09-14T15:22:50;13.98;;;2.50;;
37267;SDS011;23154;52.542;13.362;2022-09-14T15:25:17;18.08;;;2.53;;
37267;SDS011;23154;52.542;13.362;2022-09-14T15:27:44;9.82;;;2.10;;
37267;SDS011;23154;52.542;13.362;2022-09-14T15:30:11;16.35;;;3.03;;
37267;SDS011;23154;52.542;13.362;2022-09-14T15:32:38;17.45;;;2.50;;
37267;SDS011;23154;52.542;13.362;2022-09-14T15:35:05;12.63;;;2.30;;
37267;SDS011;23154;52.542;13.362;2022-09-14T15:37:32;12.32;;;2.20;;
37267;SDS011;23154;52.542;13.362;2022-09-14T15:39:58;10.45;;;2.00;;
37267;SDS011;23154;52.542;13.362;2022-09-14T15:42:24;10.98;;;2.05;;
37267;SDS011;23154;52.542;13.362;2022-09-14T15:44:52;13.13;;;2.65;;
37267;SDS011;23154;52.542;13.362;2022-09-14T15:47:19;15.15;;;2.90;;
37267;SDS011;23154;52.542;13.362;2022-09-14T15:49:45;9.40;;;2.17;;
37267;SDS011;23154;52.542;13.362;2022-09-14T15:52:12;16.67;;;2.60;;
37267;SDS011;23154;52.542;13.362;2022-09-14T15:54:38;16.35;;;2.40;;
37267;SDS011;23154;52.542;13.362;2022-09-14T15:57:04;12.30;;;2.72;;
37267;SDS011;23154;52.542;13.362;2022-09-14T15:59:32;12.55;;;2.58;;
37267;SDS011;23154;52.542;13.362;2022-09-14T16:01:58;14.50;;;2.53;;
37267;SDS011;23154;52.542;13.362;2022-09-14T16:04:23;11.25;;;2.25;;
37267;SDS011;23154;52.542;13.362;2022-09-14T16:06:49;16.23;;;2.78;;
37267;SDS011;23154;52.542;13.362;2022-09-14T16:09:15;15.98;;;2.30;;
37267;SDS011;23154;52.542;13.362;2022-09-14T16:11:42;12.48;;;2.55;;
37267;SDS011;23154;52.542;13.362;2022-09-14T16:14:09;16.85;;;2.83;;
37267;SDS011;23154;52.542;13.362;2022-09-14T16:16:36;13.57;;;2.80;;
37267;SDS011;23154;52.542;13.362;2022-09-14T16:19:21;16.85;;;2.67;;
37267;SDS011;23154;52.542;13.362;2022-09-14T16:21:47;11.95;;;2.55;;
37267;SDS011;23154;52.542;13.362;2022-09-14T16:24:14;15.32;;;2.47;;
37267;SDS011;23154;52.542;13.362;2022-09-14T16:26:42;17.08;;;3.10;;
37267;SDS011;23154;52.542;13.362;2022-09-14T16:29:09;14.23;;;3.03;;
37267;SDS011;23154;52.542;13.362;2022-09-14T16:31:37;13.95;;;2.90;;
37267;SDS011;23154;52.542;13.362;2022-09-14T16:34:04;17.00;;;3.03;;
37267;SDS011;23154;52.542;13.362;2022-09-14T16:36:33;15.82;;;2.53;;
37267;SDS011;23154;52.542;13.362;2022-09-14T16:39:03;12.95;;;2.88;;
37267;SDS011;23154;52.542;13.362;2022-09-14T16:41:30;13.45;;;2.65;;
37267;SDS011;23154;52.542;13.362;2022-09-14T16:43:57;17.02;;;2.83;;
37267;SDS011;23154;52.542;13.362;2022-09-14T16:46:25;18.17;;;3.00;;
37267;SDS011;23154;52.542;13.362;2022-09-14T16:48:55;14.50;;;2.60;;
37267;SDS011;23154;52.542;13.362;2022-09-14T16:51:40;14.00;;;2.53;;
37267;SDS011;23154;52.542;13.362;2022-09-14T16:54:05;22.63;;;3.63;;
37267;SDS011;23154;52.542;13.362;2022-09-14T16:56:34;16.35;;;2.90;;